Terminal Aerodrome Forecast
Issued by NWS Portland, OR

Home | Current Version | Previous Version | Text Only | Print | Product List | Glossary On
Versions: 1 2 3 4 5 6 7 8 9 10 11 12 13 14 15 16 17 18 19 20 21 22 23 24 25 26 27 28 29 30 31 32 33 34 35 36 37 38 39 40 41 42 43
000
FTUS46 KPQR 251123
TAFEUG
TAF
KEUG 251123Z 2512/2612 25006KT P6SM -SHRA SCT025 BKN045
     FM251900 30005KT P6SM SCT025 BKN040
     FM260400 VRB03KT 4SM BR SCT002 OVC020=

USA.gov is the U.S. government's official web portal to all federal, state and local government web resources and services.